Time;durP1;ratioP1;P1;durP2;ratioP2;P2;SDS_P1;SDS_P2;PMS_P1;PMS_P2;Temp;Humidity;BMP_temperature;BMP_pressure;BME280_temperature;BME280_humidity;BME280_pressure;Samples;Min_cycle;Max_cycle;Signal;HPM_P1;HPM_P2
2021/11/12 00:13:17;;;;;;;87.85;37.38;;;1.50;99.90;;;;;;5047560;28;19915;-58
2021/11/12 00:15:52;;;;;;;88.57;38.22;;;1.50;99.90;;;;;;5049893;28;20482;-58
2021/11/12 00:18:21;;;;;;;92.43;39.38;;;1.40;99.90;;;;;;5047770;28;20025;-60
2021/11/12 00:20:47;;;;;;;88.47;39.33;;;1.40;99.90;;;;;;5048225;28;20052;-58
2021/11/12 00:23:14;;;;;;;97.53;40.03;;;1.40;99.90;;;;;;5044058;28;20021;-58
2021/11/12 00:25:42;;;;;;;92.63;39.83;;;1.30;99.90;;;;;;5036310;28;20051;-59
2021/11/12 00:28:08;;;;;;;82.82;37.03;;;1.40;99.90;;;;;;5045636;28;20029;-59
2021/11/12 00:38:36;;;;;;;90.97;39.50;;;1.40;99.90;;;;;;5048460;28;20033;-57
2021/11/12 00:41:32;;;;;;;96.13;39.63;;;1.30;99.90;;;;;;5049989;28;20025;-59
2021/11/12 00:44:15;;;;;;;95.93;41.55;;;1.30;99.90;;;;;;5046274;28;20478;-59
2021/11/12 00:49:16;;;;;;;81.53;35.42;;;1.50;99.90;;;;;;5049491;28;20484;-59
2021/11/12 00:51:48;;;;;;;90.45;39.28;;;1.50;99.90;;;;;;5043562;28;20020;-60
2021/11/12 00:54:15;;;;;;;84.32;35.95;;;1.40;99.90;;;;;;5039340;28;20117;-60
2021/11/12 00:56:40;;;;;;;76.00;35.50;;;1.30;99.90;;;;;;5042892;28;20098;-59
2021/11/12 00:59:07;;;;;;;77.50;33.50;;;1.20;99.90;;;;;;5047837;28;20433;-59
2021/11/12 01:01:36;;;;;;;74.63;33.85;;;1.10;99.90;;;;;;5046503;28;20052;-59
2021/11/12 01:04:06;;;;;;;80.88;33.42;;;1.00;99.90;;;;;;5049946;28;20033;-59
2021/11/12 01:06:33;;;;;;;77.00;34.33;;;0.90;99.90;;;;;;5046945;28;20596;-57
2021/11/12 01:08:58;;;;;;;79.07;32.95;;;0.90;99.90;;;;;;5049348;28;21312;-60
2021/11/12 01:11:26;;;;;;;81.15;34.15;;;0.90;99.90;;;;;;5039283;28;20056;-60
2021/11/12 01:13:52;;;;;;;81.50;34.30;;;0.80;99.90;;;;;;5039557;28;20036;-60
2021/11/12 01:16:20;;;;;;;79.55;33.13;;;0.80;99.90;;;;;;5040472;28;20080;-59
2021/11/12 01:18:46;;;;;;;78.85;36.80;;;0.70;99.90;;;;;;5045919;28;20088;-57
2021/11/12 01:21:14;;;;;;;73.78;34.88;;;0.70;99.90;;;;;;5037333;28;20108;-51
2021/11/12 01:23:42;;;;;;;79.43;35.40;;;0.60;99.90;;;;;;5042891;28;20025;-57
2021/11/12 01:26:09;;;;;;;86.05;37.63;;;0.60;99.90;;;;;;5059804;28;20029;-60
2021/11/12 01:28:35;;;;;;;88.72;38.33;;;0.70;99.90;;;;;;5046297;28;20053;-59
2021/11/12 01:31:02;;;;;;;80.43;34.90;;;0.70;99.90;;;;;;5043160;28;20382;-59
2021/11/12 01:33:28;;;;;;;73.63;33.70;;;0.70;99.90;;;;;;5043536;28;20075;-61
2021/11/12 01:35:57;;;;;;;84.53;37.13;;;0.80;99.90;;;;;;5025825;28;20039;-60
2021/11/12 01:38:25;;;;;;;82.50;35.75;;;0.80;99.90;;;;;;5044927;28;20070;-59
2021/11/12 01:40:51;;;;;;;78.20;35.95;;;0.70;99.90;;;;;;5045725;28;20021;-61
2021/11/12 01:43:19;;;;;;;74.55;32.08;;;0.70;99.90;;;;;;5048348;28;20057;-56
2021/11/12 01:46:20;;;;;;;77.78;32.42;;;0.70;99.90;;;;;;5046857;28;20695;-58
2021/11/12 01:49:12;;;;;;;75.68;32.30;;;0.70;99.90;;;;;;5046309;28;20025;-58
2021/11/12 01:59:16;;;;;;;86.25;35.20;;;0.70;99.90;;;;;;5043405;28;20478;-59
2021/11/12 02:01:51;;;;;;;83.75;36.40;;;0.80;99.90;;;;;;5042669;28;20108;-59
2021/11/12 02:04:27;;;;;;;93.72;38.63;;;0.80;99.90;;;;;;5040518;28;20033;-59
2021/11/12 02:06:54;;;;;;;93.47;40.45;;;0.80;99.90;;;;;;5043798;28;20025;-60
2021/11/12 02:09:23;;;;;;;87.97;37.08;;;0.90;99.90;;;;;;5046834;28;20069;-58
2021/11/12 02:11:55;;;;;;;90.60;35.97;;;0.90;99.90;;;;;;5047251;28;20033;-56
2021/11/12 02:14:23;;;;;;;98.97;38.22;;;0.90;99.90;;;;;;5046406;28;20029;-59
2021/11/12 02:17:04;;;;;;;75.75;32.60;;;0.90;99.90;;;;;;5046625;28;20029;-58
2021/11/12 02:19:31;;;;;;;83.75;36.35;;;0.80;99.90;;;;;;5046678;28;20343;-58
2021/11/12 02:22:11;;;;;;;95.32;37.50;;;0.70;99.90;;;;;;5050142;28;20589;-59
2021/11/12 02:24:41;;;;;;;84.70;33.67;;;0.70;99.90;;;;;;5045896;28;20067;-60
2021/11/12 02:27:11;;;;;;;81.13;34.80;;;0.60;99.90;;;;;;5039815;28;20045;-59
2021/11/12 02:29:42;;;;;;;94.80;36.90;;;0.50;99.90;;;;;;5049128;28;20029;-57
2021/11/12 02:32:23;;;;;;;72.78;32.35;;;0.60;99.90;;;;;;5052998;28;20045;-59
2021/11/12 02:34:51;;;;;;;85.07;34.55;;;0.50;99.90;;;;;;5050201;28;20033;-57
2021/11/12 02:37:18;;;;;;;88.97;33.90;;;0.50;99.90;;;;;;5052828;28;20059;-59
2021/11/12 02:39:45;;;;;;;72.10;32.08;;;0.50;99.90;;;;;;5049522;28;20032;-52
2021/11/12 02:42:12;;;;;;;79.43;33.03;;;0.50;99.90;;;;;;5042955;28;20105;-58
2021/11/12 02:44:38;;;;;;;83.53;34.10;;;0.60;99.90;;;;;;5040515;28;20559;-59
2021/11/12 02:47:04;;;;;;;78.18;32.92;;;0.70;99.90;;;;;;5046742;28;20053;-56
2021/11/12 02:49:30;;;;;;;81.22;35.20;;;0.80;99.90;;;;;;5046718;28;20119;-57
2021/11/12 02:51:55;;;;;;;78.32;33.95;;;0.80;99.90;;;;;;5040003;28;20113;-57
2021/11/12 02:54:22;;;;;;;79.03;35.50;;;1.00;99.90;;;;;;5045816;28;20032;-60
2021/11/12 02:56:51;;;;;;;89.30;33.75;;;1.10;99.90;;;;;;5039451;28;20029;-58
2021/11/12 02:59:17;;;;;;;96.15;36.03;;;1.30;99.90;;;;;;5044247;28;20120;-60
2021/11/12 03:01:46;;;;;;;115.55;34.88;;;1.50;99.90;;;;;;5043861;28;20139;-59
2021/11/12 03:04:14;;;;;;;110.75;35.13;;;1.70;99.90;;;;;;5047853;28;20032;-53
2021/11/12 03:06:41;;;;;;;131.88;37.05;;;1.80;99.90;;;;;;5047330;28;20025;-59
2021/11/12 03:09:10;;;;;;;336.58;43.63;;;1.90;99.90;;;;;;5046501;28;20379;-60
2021/11/12 03:11:37;;;;;;;185.43;38.65;;;2.00;99.90;;;;;;5045148;28;20024;-55
2021/11/12 03:14:07;;;;;;;158.73;35.83;;;2.10;99.90;;;;;;5047372;28;20039;-59
2021/11/12 03:16:34;;;;;;;225.50;40.90;;;2.20;99.90;;;;;;5047082;28;20094;-59
2021/11/12 03:19:01;;;;;;;121.80;33.75;;;2.30;99.90;;;;;;5046670;28;20021;-59
2021/11/12 03:21:27;;;;;;;219.13;39.78;;;2.40;99.90;;;;;;5052471;28;20449;-61
2021/11/12 03:24:01;;;;;;;134.75;34.40;;;2.40;99.90;;;;;;5040058;28;20510;-60
2021/11/12 04:02:29;;;;;;;71.82;29.45;;;2.90;99.90;;;;;;5047416;28;20115;-59
2021/11/12 04:18:09;;;;;;;58.90;26.67;;;2.80;99.90;;;;;;5042444;28;20394;-58
2021/11/12 04:20:50;;;;;;;62.60;26.95;;;2.80;99.90;;;;;;5047273;28;20033;-58
2021/11/12 05:33:35;;;;;;;46.83;23.75;;;3.70;99.90;;;;;;5046089;28;20036;-58
2021/11/12 05:56:02;;;;;;;50.08;24.23;;;3.80;99.90;;;;;;5046381;28;20036;-59
2021/11/12 05:58:28;;;;;;;50.40;24.58;;;3.80;99.90;;;;;;5044620;28;20057;-58
2021/11/12 06:00:54;;;;;;;45.92;24.30;;;3.80;99.90;;;;;;5040826;28;20431;-58
2021/11/12 06:03:19;;;;;;;47.85;23.90;;;3.80;99.90;;;;;;5051616;28;20025;-60
2021/11/12 06:05:45;;;;;;;36.22;21.33;;;3.80;99.90;;;;;;5050937;28;20036;-59
2021/11/12 06:08:11;;;;;;;42.10;22.15;;;3.90;99.90;;;;;;5047533;28;20513;-59
2021/11/12 06:10:37;;;;;;;39.83;21.65;;;3.90;99.90;;;;;;5043621;28;20053;-59
2021/11/12 06:13:02;;;;;;;43.35;21.83;;;3.90;99.90;;;;;;5048417;28;20477;-60
2021/11/12 06:15:28;;;;;;;45.30;23.00;;;3.90;99.90;;;;;;5049707;28;20037;-55
2021/11/12 06:17:54;;;;;;;48.80;23.77;;;3.80;99.90;;;;;;5047759;28;20060;-52
2021/11/12 06:20:20;;;;;;;45.22;23.48;;;3.90;99.90;;;;;;5049947;28;20033;-59
2021/11/12 06:22:45;;;;;;;41.67;21.98;;;3.80;99.90;;;;;;5050880;28;20108;-60
2021/11/12 06:25:11;;;;;;;44.33;22.10;;;3.90;99.90;;;;;;5049191;28;20052;-60
2021/11/12 06:27:36;;;;;;;41.17;22.25;;;3.80;99.90;;;;;;5046485;28;20025;-59
2021/11/12 06:30:06;;;;;;;43.60;23.67;;;3.80;99.90;;;;;;5048114;28;20029;-61
2021/11/12 06:32:32;;;;;;;43.95;23.30;;;3.80;99.90;;;;;;5050686;28;20029;-61
2021/11/12 06:34:58;;;;;;;48.88;25.17;;;3.80;99.90;;;;;;5050910;28;20037;-60
2021/11/12 06:37:23;;;;;;;44.58;23.95;;;3.80;99.90;;;;;;5045284;28;20021;-58
2021/11/12 06:39:49;;;;;;;50.22;24.92;;;3.80;99.90;;;;;;5048028;28;20021;-59
2021/11/12 06:42:19;;;;;;;44.67;23.63;;;3.90;99.90;;;;;;5041314;28;20789;-60
2021/11/12 06:50:12;;;;;;;48.08;23.73;;;3.90;99.90;;;;;;5047003;28;20402;-57
2021/11/12 06:52:39;;;;;;;49.45;24.35;;;3.90;99.90;;;;;;5034371;28;20505;-59
2021/11/12 06:55:09;;;;;;;53.92;25.50;;;3.90;99.90;;;;;;5049332;28;20667;-58
2021/11/12 06:57:35;;;;;;;52.25;24.17;;;4.00;99.90;;;;;;5049690;28;20029;-58
2021/11/12 07:00:00;;;;;;;46.05;25.50;;;4.00;99.90;;;;;;5050973;28;20390;-60
2021/11/12 07:02:26;;;;;;;48.30;23.92;;;4.00;99.90;;;;;;5051639;28;20710;-60
2021/11/12 07:04:52;;;;;;;50.45;23.20;;;4.00;99.90;;;;;;5049894;28;20434;-61
2021/11/12 07:07:18;;;;;;;45.33;24.40;;;4.00;99.90;;;;;;5046629;28;20402;-61
2021/11/12 07:09:46;;;;;;;45.00;23.75;;;4.00;99.90;;;;;;5045016;28;20033;-61
2021/11/12 07:12:13;;;;;;;48.47;22.48;;;4.00;99.90;;;;;;5043254;28;20036;-60
2021/11/12 07:14:38;;;;;;;50.13;24.45;;;4.00;99.90;;;;;;5050276;28;20029;-59
2021/11/12 07:17:05;;;;;;;48.55;24.50;;;4.00;99.90;;;;;;5041149;28;20033;-60
2021/11/12 07:19:31;;;;;;;42.65;23.90;;;4.00;99.90;;;;;;5042302;28;20099;-58
2021/11/12 07:21:58;;;;;;;48.03;23.42;;;4.10;99.90;;;;;;5041949;28;20143;-61
2021/11/12 07:24:24;;;;;;;47.92;23.67;;;4.00;99.90;;;;;;5049681;28;20029;-61
2021/11/12 07:26:51;;;;;;;47.25;21.98;;;4.00;99.90;;;;;;5044097;28;20096;-60
2021/11/12 07:29:18;;;;;;;48.15;22.55;;;4.10;99.90;;;;;;5041582;28;20039;-60
2021/11/12 07:31:44;;;;;;;40.25;21.52;;;4.10;99.90;;;;;;5047774;28;20050;-61
2021/11/12 07:34:12;;;;;;;38.38;21.10;;;4.10;99.90;;;;;;5048409;28;20100;-59
2021/11/12 07:36:40;;;;;;;38.28;20.08;;;4.10;99.90;;;;;;5048466;28;20040;-60
2021/11/12 07:39:35;;;;;;;42.42;20.95;;;4.10;99.90;;;;;;5039354;28;20040;-59
2021/11/12 07:44:41;;;;;;;36.10;18.05;;;4.20;99.90;;;;;;5050135;28;20033;-60
2021/11/12 07:47:15;;;;;;;33.45;16.08;;;4.10;99.90;;;;;;5043988;28;20060;-61
2021/11/12 07:49:47;;;;;;;33.80;16.95;;;4.10;99.90;;;;;;5046893;28;20383;-59
2021/11/12 07:52:14;;;;;;;37.80;17.85;;;4.10;99.90;;;;;;5049149;28;20025;-59
2021/11/12 07:54:40;;;;;;;35.05;17.77;;;4.10;99.90;;;;;;5047744;28;20025;-58
2021/11/12 07:57:08;;;;;;;30.55;17.13;;;4.10;99.90;;;;;;5039377;28;20083;-61
2021/11/12 07:59:34;;;;;;;38.00;18.70;;;4.10;99.90;;;;;;5045868;28;20482;-59
2021/11/12 08:02:00;;;;;;;33.90;17.92;;;4.10;99.90;;;;;;5013392;28;20045;-59
2021/11/12 08:04:27;;;;;;;32.85;16.95;;;4.10;99.90;;;;;;5036883;28;20140;-60
2021/11/12 08:06:55;;;;;;;36.15;18.27;;;4.20;99.90;;;;;;5047180;28;20020;-52
2021/11/12 08:09:24;;;;;;;37.55;18.42;;;4.10;99.90;;;;;;5041375;28;20057;-59
2021/11/12 08:12:04;;;;;;;34.15;17.55;;;4.20;99.90;;;;;;5046257;28;20028;-57
2021/11/12 08:14:40;;;;;;;36.08;17.55;;;4.20;99.90;;;;;;5042169;28;20517;-60
2021/11/12 08:19:53;;;;;;;35.20;16.65;;;4.40;99.90;;;;;;5043796;28;20048;-61
2021/11/12 08:22:26;;;;;;;31.25;18.00;;;4.40;99.90;;;;;;5046645;28;20490;-61
2021/11/12 08:42:41;;;;;;;53.58;30.00;;;4.60;99.90;;;;;;5047618;28;20033;-60
2021/11/12 08:45:16;;;;;;;52.55;28.23;;;4.70;99.90;;;;;;5042747;28;20112;-60
2021/11/12 08:47:45;;;;;;;32.15;19.27;;;4.70;99.90;;;;;;5044543;28;20074;-60
2021/11/12 08:50:18;;;;;;;29.58;16.52;;;4.80;99.90;;;;;;5038677;28;20402;-60
2021/11/12 08:52:47;;;;;;;33.67;18.02;;;4.90;99.90;;;;;;5048091;28;20075;-57
2021/11/12 08:55:15;;;;;;;31.02;18.42;;;4.90;99.90;;;;;;5041608;28;20060;-60
2021/11/12 08:57:40;;;;;;;30.40;17.15;;;4.90;99.90;;;;;;5048865;28;20047;-50
2021/11/12 09:00:08;;;;;;;34.67;21.38;;;4.90;99.90;;;;;;5042176;28;20036;-61
2021/11/12 09:02:34;;;;;;;43.67;23.85;;;4.90;99.90;;;;;;5047648;28;20024;-59
2021/11/12 09:05:00;;;;;;;41.95;23.83;;;4.90;99.90;;;;;;5039816;28;20728;-59
2021/11/12 09:07:25;;;;;;;38.58;23.17;;;5.00;99.90;;;;;;5044361;28;20123;-58
2021/11/12 09:09:56;;;;;;;35.55;20.25;;;5.10;99.90;;;;;;5045226;28;20049;-58
2021/11/12 09:12:23;;;;;;;33.00;20.15;;;5.10;99.90;;;;;;5044435;28;20516;-60
2021/11/12 09:14:51;;;;;;;28.52;16.23;;;5.20;99.90;;;;;;5048004;28;20070;-61
2021/11/12 09:17:19;;;;;;;28.45;17.90;;;5.30;99.90;;;;;;5044089;28;20120;-62
2021/11/12 09:19:46;;;;;;;31.50;18.30;;;5.40;99.90;;;;;;5047516;28;20030;-60
2021/11/12 09:22:14;;;;;;;53.78;32.47;;;5.50;99.90;;;;;;5040335;28;20025;-60
2021/11/12 09:24:40;;;;;;;24.50;16.33;;;5.50;99.90;;;;;;5041583;28;20111;-58
2021/11/12 09:27:06;;;;;;;28.33;17.45;;;5.60;99.90;;;;;;5039149;28;20171;-60
2021/11/12 09:29:32;;;;;;;35.67;20.17;;;5.70;99.90;;;;;;5047206;28;20494;-60
2021/11/12 09:31:58;;;;;;;66.25;32.50;;;5.80;99.90;;;;;;5043049;28;20037;-61
2021/11/12 09:34:24;;;;;;;55.55;28.52;;;5.90;99.90;;;;;;5039384;28;20036;-60
2021/11/12 09:36:49;;;;;;;35.65;20.50;;;5.90;99.90;;;;;;5037019;28;20029;-57
2021/11/12 09:39:15;;;;;;;51.88;26.75;;;5.90;99.90;;;;;;5036517;28;20159;-59
2021/11/12 09:41:42;;;;;;;31.33;22.35;;;5.80;99.90;;;;;;5037753;28;20730;-60
2021/11/12 09:44:08;;;;;;;24.60;14.93;;;5.80;99.90;;;;;;5043278;28;20421;-60
2021/11/12 09:46:35;;;;;;;23.95;13.63;;;5.90;99.90;;;;;;5010461;28;20040;-58
2021/11/12 09:49:03;;;;;;;30.55;16.88;;;6.10;99.90;;;;;;5048157;28;20032;-60
2021/11/12 09:51:29;;;;;;;29.58;18.48;;;6.10;99.90;;;;;;5045628;28;20032;-59
2021/11/12 09:53:55;;;;;;;26.55;15.57;;;6.30;99.90;;;;;;5044664;28;20021;-59
2021/11/12 09:56:21;;;;;;;23.70;15.20;;;6.30;99.90;;;;;;5040078;28;20039;-59
2021/11/12 09:58:50;;;;;;;18.90;12.82;;;6.30;99.90;;;;;;5045419;28;20017;-61
2021/11/12 10:01:24;;;;;;;21.17;13.85;;;6.30;99.90;;;;;;5043247;28;20021;-61
2021/11/12 10:03:50;;;;;;;23.02;14.50;;;6.30;99.90;;;;;;5040685;28;20070;-60
2021/11/12 10:06:25;;;;;;;20.58;13.43;;;6.30;99.90;;;;;;5046930;28;20112;-58
2021/11/12 10:08:52;;;;;;;23.45;15.05;;;6.30;99.90;;;;;;5047986;28;20029;-59
2021/11/12 10:11:31;;;;;;;20.40;13.77;;;6.40;99.90;;;;;;5040330;28;20080;-60
2021/11/12 10:14:02;;;;;;;23.73;14.98;;;6.40;99.90;;;;;;5043807;28;20044;-60
2021/11/12 10:16:36;;;;;;;23.92;14.57;;;6.50;99.90;;;;;;5044496;28;20033;-60
2021/11/12 10:19:11;;;;;;;23.05;14.77;;;6.70;99.90;;;;;;5046483;28;20032;-55
2021/11/12 10:21:39;;;;;;;23.30;14.43;;;6.70;99.90;;;;;;5040730;28;20052;-59
2021/11/12 10:24:08;;;;;;;23.95;14.30;;;6.50;99.90;;;;;;5046617;28;20576;-58
2021/11/12 10:26:36;;;;;;;25.35;15.55;;;6.30;99.90;;;;;;5046243;28;20560;-61
2021/11/12 10:29:10;;;;;;;21.88;14.70;;;6.40;99.90;;;;;;5040905;28;20024;-58
2021/11/12 10:31:49;;;;;;;28.00;14.80;;;6.40;99.90;;;;;;5061409;28;20055;-59
2021/11/12 10:34:23;;;;;;;25.58;15.50;;;6.50;99.90;;;;;;5042208;28;20104;-60
2021/11/12 10:37:11;;;;;;;22.27;14.05;;;6.40;99.90;;;;;;5047777;28;20437;-60
2021/11/12 10:39:47;;;;;;;23.17;14.65;;;6.40;99.90;;;;;;5048042;28;20020;-59
2021/11/12 10:42:21;;;;;;;44.30;24.90;;;6.30;99.90;;;;;;5040030;28;20785;-60
2021/11/12 10:44:50;;;;;;;74.30;41.60;;;6.20;99.90;;;;;;5045878;28;20036;-59
2021/11/12 10:47:17;;;;;;;108.88;58.40;;;6.10;99.90;;;;;;5043937;28;20025;-59
2021/11/12 10:49:48;;;;;;;45.67;25.40;;;6.00;99.90;;;;;;5049353;28;20060;-61
2021/11/12 10:52:18;;;;;;;35.47;22.85;;;5.90;99.90;;;;;;5048111;28;20025;-61
2021/11/12 10:55:02;;;;;;;32.65;19.15;;;5.90;99.90;;;;;;5051372;28;20051;-60
2021/11/12 10:57:40;;;;;;;24.45;15.60;;;6.00;99.90;;;;;;5045449;28;20025;-59
2021/11/12 11:00:33;;;;;;;23.92;14.18;;;6.10;99.90;;;;;;5039358;28;20036;-60
2021/11/12 11:03:04;;;;;;;24.27;13.80;;;6.30;99.90;;;;;;5044978;28;20030;-60
2021/11/12 11:05:54;;;;;;;26.08;16.17;;;6.40;99.90;;;;;;5051060;28;20095;-60
2021/11/12 11:08:28;;;;;;;26.85;15.90;;;6.40;99.90;;;;;;5046569;28;20029;-59
2021/11/12 11:10:56;;;;;;;22.30;15.15;;;6.40;99.90;;;;;;5044245;28;20077;-59
2021/11/12 11:13:33;;;;;;;24.75;16.33;;;6.50;99.90;;;;;;5048700;28;20033;-59
2021/11/12 11:16:04;;;;;;;29.17;17.60;;;6.60;99.90;;;;;;5047816;28;20537;-59
2021/11/12 11:18:36;;;;;;;25.73;16.08;;;6.60;99.90;;;;;;5051265;28;20044;-58
2021/11/12 11:21:38;;;;;;;27.63;15.63;;;6.60;99.90;;;;;;5049019;28;20013;-60
2021/11/12 11:24:09;;;;;;;26.15;16.05;;;6.60;99.90;;;;;;5046456;28;20032;-59
2021/11/12 11:26:43;;;;;;;24.52;14.65;;;6.60;99.90;;;;;;5049206;28;20056;-59
2021/11/12 11:29:10;;;;;;;;;;;6.60;99.90;;;;;;5045170;28;20116;-60
2021/11/12 11:31:36;;;;;;;26.42;15.93;;;6.60;99.90;;;;;;5044391;28;20448;-60
2021/11/12 11:34:03;;;;;;;23.10;14.18;;;6.60;99.90;;;;;;5049449;28;20052;-58
2021/11/12 11:36:36;;;;;;;26.85;16.08;;;6.60;99.90;;;;;;5048938;28;20114;-57
2021/11/12 11:39:06;;;;;;;25.33;14.80;;;6.60;99.90;;;;;;5048485;28;20025;-60
2021/11/12 11:41:32;;;;;;;30.20;17.50;;;6.70;99.90;;;;;;5046759;28;20063;-60
2021/11/12 11:43:58;;;;;;;31.38;17.77;;;6.60;99.90;;;;;;5050197;28;20029;-61
2021/11/12 11:46:35;;;;;;;33.35;19.73;;;6.70;99.90;;;;;;5049754;28;20112;-60
2021/11/12 11:49:08;;;;;;;26.40;15.77;;;6.70;99.90;;;;;;5047613;28;20032;-59
2021/11/12 11:51:37;;;;;;;32.92;17.35;;;6.80;99.90;;;;;;5046486;28;20051;-60
2021/11/12 11:54:11;;;;;;;26.95;15.80;;;6.70;99.90;;;;;;5049234;28;20131;-58
2021/11/12 11:56:43;;;;;;;26.88;17.60;;;6.70;99.90;;;;;;5049782;28;20037;-60
2021/11/12 11:59:21;;;;;;;24.75;15.77;;;6.80;99.90;;;;;;5042192;28;20030;-60
2021/11/12 12:01:48;;;;;;;30.02;15.80;;;6.80;99.90;;;;;;5044314;28;20414;-60
2021/11/12 12:04:13;;;;;;;22.27;14.07;;;6.80;99.90;;;;;;5044781;28;20026;-57
2021/11/12 12:07:01;;;;;;;26.58;15.73;;;6.80;99.90;;;;;;5046847;28;20502;-59
2021/11/12 12:09:48;;;;;;;27.27;16.80;;;6.80;99.90;;;;;;5046887;28;20025;-60
2021/11/12 12:12:35;;;;;;;22.23;14.93;;;6.90;99.90;;;;;;5046130;28;20041;-60
2021/11/12 12:15:03;;;;;;;27.65;15.10;;;6.90;99.90;;;;;;5048106;28;20118;-59
2021/11/12 12:17:31;;;;;;;25.30;14.57;;;6.90;99.90;;;;;;5050437;28;20422;-60
2021/11/12 12:37:14;;;;;;;24.50;15.02;;;7.10;99.90;;;;;;5048349;28;20552;-56
2021/11/12 13:25:41;;;;;;;27.73;16.20;;;7.70;99.90;;;;;;5033793;28;20095;-61
2021/11/12 13:28:14;;;;;;;28.50;17.85;;;7.70;99.90;;;;;;5037222;28;20301;-58
2021/11/12 13:30:44;;;;;;;29.92;15.20;;;7.80;99.90;;;;;;5043675;28;20052;-61
2021/11/12 13:33:34;;;;;;;19.40;12.70;;;7.80;99.90;;;;;;5045282;28;20421;-59
2021/11/12 13:36:12;;;;;;;21.48;13.40;;;7.80;99.90;;;;;;5042998;28;20053;-61
2021/11/12 13:38:42;;;;;;;20.55;12.95;;;7.80;99.90;;;;;;5047166;28;20027;-61
2021/11/12 13:41:10;;;;;;;23.17;13.52;;;7.80;99.90;;;;;;5038596;28;20030;-61
2021/11/12 13:43:38;;;;;;;19.50;13.73;;;7.90;99.90;;;;;;5041297;28;20124;-60
2021/11/12 13:46:04;;;;;;;27.70;15.40;;;7.90;99.90;;;;;;5043960;28;20036;-59
2021/11/12 13:48:44;;;;;;;28.00;16.27;;;7.80;99.90;;;;;;5045107;28;20568;-61
2021/11/12 13:51:10;;;;;;;29.23;15.50;;;7.80;99.90;;;;;;5037084;28;20034;-61
2021/11/12 13:53:36;;;;;;;27.58;15.98;;;7.70;99.90;;;;;;5046085;28;20661;-61
2021/11/12 13:56:06;;;;;;;38.67;23.83;;;7.70;99.90;;;;;;5039306;28;20112;-61
2021/11/12 13:58:31;;;;;;;25.30;17.08;;;7.70;99.90;;;;;;5041513;28;20059;-59
2021/11/12 14:00:57;;;;;;;28.58;16.55;;;7.70;99.90;;;;;;5042251;28;20021;-61
2021/11/12 14:03:38;;;;;;;23.13;14.55;;;7.60;99.90;;;;;;5045142;28;20017;-59
2021/11/12 14:06:15;;;;;;;34.03;21.65;;;7.60;99.90;;;;;;5041743;28;20047;-59
2021/11/12 14:08:49;;;;;;;26.67;16.52;;;7.60;99.90;;;;;;5045417;28;20029;-58
2021/11/12 14:11:27;;;;;;;31.67;17.90;;;7.60;99.90;;;;;;5045612;28;20367;-56
2021/11/12 14:13:56;;;;;;;30.40;18.02;;;7.60;99.90;;;;;;5047479;28;20044;-60
2021/11/12 14:16:34;;;;;;;38.75;22.15;;;7.60;99.90;;;;;;5047008;28;20036;-61
2021/11/12 14:22:05;;;;;;;20.85;13.85;;;7.60;99.90;;;;;;5048359;28;20017;-61
2021/11/12 14:24:51;;;;;;;24.00;14.77;;;7.60;99.90;;;;;;5051252;28;20069;-61
2021/11/12 14:38:37;;;;;;;39.75;22.02;;;7.30;99.90;;;;;;5029088;28;20073;-60
2021/11/12 14:49:00;;;;;;;22.92;14.73;;;7.20;99.90;;;;;;5051506;28;20029;-61
2021/11/12 14:51:55;;;;;;;23.60;14.85;;;7.20;99.90;;;;;;5049536;28;20554;-60
2021/11/12 14:54:47;;;;;;;24.90;16.45;;;7.10;99.90;;;;;;5049216;28;20572;-61
2021/11/12 14:59:49;;;;;;;21.42;14.40;;;7.00;99.90;;;;;;5049643;28;20071;-60
2021/11/12 15:02:15;;;;;;;24.52;14.70;;;6.90;99.90;;;;;;5050910;28;20419;-60
2021/11/12 15:04:41;;;;;;;22.55;14.15;;;6.80;99.90;;;;;;5047597;28;20068;-60
2021/11/12 15:07:07;;;;;;;20.73;13.25;;;6.80;99.90;;;;;;5047900;28;20073;-61
2021/11/12 15:09:35;;;;;;;22.13;13.05;;;6.70;99.90;;;;;;5045488;28;20425;-61
2021/11/12 15:12:05;;;;;;;23.75;15.45;;;6.60;99.90;;;;;;5048704;28;20025;-61
2021/11/12 15:14:35;;;;;;;23.75;14.88;;;6.60;99.90;;;;;;5049381;28;20115;-61
2021/11/12 15:17:02;;;;;;;22.45;14.68;;;6.50;99.90;;;;;;5047965;28;20033;-59
2021/11/12 15:19:29;;;;;;;25.25;14.43;;;6.50;99.90;;;;;;5051193;28;20021;-60
2021/11/12 15:29:21;;;;;;;27.45;18.83;;;6.30;99.90;;;;;;5046601;28;20132;-61
2021/11/12 15:34:15;;;;;;;27.70;17.10;;;6.20;99.90;;;;;;5048500;28;20029;-58
2021/11/12 15:36:57;;;;;;;26.38;15.50;;;6.10;99.90;;;;;;5044018;28;20434;-59
2021/11/12 15:44:54;;;;;;;28.70;18.13;;;6.00;99.90;;;;;;5042205;28;20450;-60
2021/11/12 15:49:52;;;;;;;32.20;17.15;;;5.90;99.90;;;;;;5047865;28;20116;-59
2021/11/12 15:55:06;;;;;;;26.25;15.63;;;5.80;99.90;;;;;;5039242;28;20029;-57
2021/11/12 16:00:16;;;;;;;28.38;18.00;;;5.60;99.90;;;;;;5046643;28;20106;-57
2021/11/12 16:02:59;;;;;;;26.65;16.17;;;5.60;99.90;;;;;;5040905;28;20403;-58
2021/11/12 16:11:31;;;;;;;30.23;16.33;;;5.40;99.90;;;;;;5047976;28;20048;-58
2021/11/12 16:13:20;;;;;;;29.80;17.75;;;5.30;99.90;;;;;;5030507;28;20614;-59
2021/11/12 16:23:56;;;;;;;61.83;35.65;;;5.00;99.90;;;;;;5046793;28;20548;-57
2021/11/12 16:26:25;;;;;;;76.43;43.60;;;5.00;99.90;;;;;;5042450;28;20042;-60
2021/11/12 16:31:19;;;;;;;69.35;36.45;;;4.90;99.90;;;;;;5048847;28;20044;-58
2021/11/12 16:33:44;;;;;;;39.42;20.65;;;4.90;99.90;;;;;;5042017;28;20029;-58
2021/11/12 16:36:10;;;;;;;74.53;40.30;;;4.80;99.90;;;;;;5045740;28;20490;-57
2021/11/12 16:38:36;;;;;;;44.60;26.30;;;4.80;99.90;;;;;;5039293;28;20028;-59
2021/11/12 16:46:51;;;;;;;38.92;20.40;;;4.70;99.90;;;;;;5016620;28;20047;-57
2021/11/12 16:49:26;;;;;;;42.10;24.63;;;4.70;99.90;;;;;;5050342;28;20064;-57
2021/11/12 16:52:04;;;;;;;34.10;19.50;;;4.60;99.90;;;;;;5049443;28;20036;-59
2021/11/12 16:54:46;;;;;;;53.75;30.60;;;4.60;99.90;;;;;;5050333;28;20056;-58
2021/11/12 16:57:34;;;;;;;39.45;21.17;;;4.60;99.90;;;;;;5047885;28;20029;-59
2021/11/12 17:05:20;;;;;;;44.33;28.00;;;4.40;99.90;;;;;;5043268;28;20039;-60
2021/11/12 17:13:08;;;;;;;45.63;25.85;;;4.40;99.90;;;;;;5046861;28;20920;-60
2021/11/12 17:21:12;;;;;;;52.22;31.25;;;4.30;99.90;;;;;;5049170;28;20486;-60
2021/11/12 17:48:20;;;;;;;39.38;20.20;;;4.10;99.90;;;;;;5047334;28;20047;-58
2021/11/12 18:02:11;;;;;;;36.20;18.13;;;4.00;99.90;;;;;;5046505;28;20490;-57
2021/11/12 18:13:04;;;;;;;35.65;17.45;;;4.00;99.90;;;;;;5050599;28;20035;-60
2021/11/12 21:48:17;;;;;;;25.73;14.82;;;3.90;99.90;;;;;;5046846;28;20036;-58
2021/11/12 21:50:43;;;;;;;22.35;13.43;;;3.90;99.90;;;;;;5048513;28;20386;-61
2021/11/12 21:53:08;;;;;;;28.27;14.48;;;3.90;99.90;;;;;;5047244;28;20029;-60
2021/11/12 21:55:34;;;;;;;22.95;13.02;;;3.90;99.90;;;;;;5048825;28;20025;-61
2021/11/12 21:58:01;;;;;;;27.92;15.23;;;4.00;99.90;;;;;;5048729;28;20017;-59
2021/11/12 22:00:27;;;;;;;25.88;14.32;;;4.00;99.90;;;;;;5049051;28;20025;-60
2021/11/12 22:02:54;;;;;;;26.13;14.82;;;4.00;99.90;;;;;;5045985;28;20021;-61
2021/11/12 22:05:19;;;;;;;25.25;13.90;;;4.10;99.90;;;;;;5048764;28;20098;-58
2021/11/12 22:07:45;;;;;;;24.45;14.18;;;4.20;99.90;;;;;;5048299;28;20025;-61
2021/11/12 22:10:11;;;;;;;24.95;13.98;;;4.20;99.90;;;;;;5049196;28;20064;-60
2021/11/12 22:12:36;;;;;;;24.02;14.63;;;4.30;99.90;;;;;;5045897;28;20078;-60
2021/11/12 22:15:05;;;;;;;23.25;13.65;;;4.30;99.90;;;;;;5046713;28;20032;-58
2021/11/12 22:17:31;;;;;;;21.90;12.00;;;4.30;99.90;;;;;;5044910;28;20387;-60
2021/11/12 22:19:56;;;;;;;18.90;12.43;;;4.40;99.90;;;;;;5047761;28;20036;-61
2021/11/12 22:22:22;;;;;;;18.05;11.18;;;4.50;99.90;;;;;;5048440;28;20025;-60
2021/11/12 22:24:48;;;;;;;21.63;12.18;;;4.50;99.90;;;;;;5049059;28;20021;-58
2021/11/12 22:27:14;;;;;;;22.48;12.07;;;4.50;99.90;;;;;;5048439;28;20032;-61
2021/11/12 22:29:40;;;;;;;22.33;11.48;;;4.60;99.90;;;;;;5047020;28;20017;-58
2021/11/12 22:32:06;;;;;;;22.20;12.68;;;4.50;99.90;;;;;;5045573;28;20033;-59
2021/11/12 22:34:32;;;;;;;21.75;11.68;;;4.60;99.90;;;;;;5043271;28;20108;-60
2021/11/12 22:36:57;;;;;;;20.33;11.52;;;4.60;99.90;;;;;;5040014;28;20149;-57
2021/11/12 22:39:23;;;;;;;19.60;11.77;;;4.60;99.90;;;;;;5046957;28;20092;-60
2021/11/12 22:41:50;;;;;;;23.77;11.52;;;4.60;99.90;;;;;;5046801;28;20021;-59
2021/11/12 22:44:17;;;;;;;16.55;9.77;;;4.70;99.90;;;;;;5037365;28;20033;-61
2021/11/12 22:46:43;;;;;;;18.50;11.23;;;4.70;99.90;;;;;;5046800;28;20024;-59
2021/11/12 22:49:09;;;;;;;20.83;12.18;;;4.70;99.90;;;;;;5050830;28;20079;-60
2021/11/12 22:51:36;;;;;;;14.82;10.18;;;4.70;99.90;;;;;;5051918;28;20066;-58
2021/11/12 22:54:03;;;;;;;21.65;11.02;;;4.60;99.90;;;;;;5050651;28;20075;-60